sensor_id;sensor_type;location;lat;lon;timestamp;P1;durP1;ratioP1;P2;durP2;ratioP2
70796;SDS011;63842;52.144;5.360;2023-04-01T00:01:27;14.20;;;5.47;;
70796;SDS011;63842;52.144;5.360;2023-04-01T00:03:54;13.15;;;5.68;;
70796;SDS011;63842;52.144;5.360;2023-04-01T00:06:22;18.40;;;5.55;;
70796;SDS011;63842;52.144;5.360;2023-04-01T00:08:50;15.30;;;5.57;;
70796;SDS011;63842;52.144;5.360;2023-04-01T00:11:18;14.00;;;4.97;;
70796;SDS011;63842;52.144;5.360;2023-04-01T00:13:46;17.25;;;5.63;;
70796;SDS011;63842;52.144;5.360;2023-04-01T00:16:14;16.05;;;5.50;;
70796;SDS011;63842;52.144;5.360;2023-04-01T00:18:44;20.48;;;6.30;;
70796;SDS011;63842;52.144;5.360;2023-04-01T00:21:13;17.80;;;6.18;;
70796;SDS011;63842;52.144;5.360;2023-04-01T00:23:41;19.40;;;6.35;;
70796;SDS011;63842;52.144;5.360;2023-04-01T00:26:08;20.58;;;6.30;;
70796;SDS011;63842;52.144;5.360;2023-04-01T00:28:37;16.35;;;5.85;;
70796;SDS011;63842;52.144;5.360;2023-04-01T00:31:07;15.93;;;6.10;;
70796;SDS011;63842;52.144;5.360;2023-04-01T00:33:36;17.77;;;5.90;;
70796;SDS011;63842;52.144;5.360;2023-04-01T00:36:07;19.80;;;6.47;;
70796;SDS011;63842;52.144;5.360;2023-04-01T00:38:38;17.25;;;5.72;;
70796;SDS011;63842;52.144;5.360;2023-04-01T00:41:06;20.25;;;6.40;;
70796;SDS011;63842;52.144;5.360;2023-04-01T00:43:33;16.63;;;5.82;;
70796;SDS011;63842;52.144;5.360;2023-04-01T00:46:01;15.80;;;5.75;;
70796;SDS011;63842;52.144;5.360;2023-04-01T00:48:35;17.42;;;5.70;;
70796;SDS011;63842;52.144;5.360;2023-04-01T00:51:07;15.02;;;5.65;;
70796;SDS011;63842;52.144;5.360;2023-04-01T00:53:40;16.67;;;5.18;;
70796;SDS011;63842;52.144;5.360;2023-04-01T00:56:11;17.20;;;5.63;;
70796;SDS011;63842;52.144;5.360;2023-04-01T00:58:42;16.30;;;5.15;;
70796;SDS011;63842;52.144;5.360;2023-04-01T01:01:12;16.75;;;5.65;;
70796;SDS011;63842;52.144;5.360;2023-04-01T01:03:40;19.10;;;5.50;;
70796;SDS011;63842;52.144;5.360;2023-04-01T01:06:24;16.67;;;5.90;;
70796;SDS011;63842;52.144;5.360;2023-04-01T01:11:42;12.60;;;5.07;;
70796;SDS011;63842;52.144;5.360;2023-04-01T01:14:20;19.33;;;5.85;;
70796;SDS011;63842;52.144;5.360;2023-04-01T01:17:22;16.02;;;5.68;;
70796;SDS011;63842;52.144;5.360;2023-04-01T01:25:36;16.15;;;5.25;;
70796;SDS011;63842;52.144;5.360;2023-04-01T01:28:14;14.38;;;5.13;;
70796;SDS011;63842;52.144;5.360;2023-04-01T01:30:54;16.83;;;5.75;;
70796;SDS011;63842;52.144;5.360;2023-04-01T01:33:44;14.48;;;5.72;;
70796;SDS011;63842;52.144;5.360;2023-04-01T01:36:14;16.95;;;5.70;;
70796;SDS011;63842;52.144;5.360;2023-04-01T01:41:10;12.15;;;4.68;;
70796;SDS011;63842;52.144;5.360;2023-04-01T01:43:40;13.02;;;4.03;;
70796;SDS011;63842;52.144;5.360;2023-04-01T01:46:12;11.73;;;3.70;;
70796;SDS011;63842;52.144;5.360;2023-04-01T01:48:42;11.30;;;3.70;;
70796;SDS011;63842;52.144;5.360;2023-04-01T01:51:10;11.27;;;3.88;;
70796;SDS011;63842;52.144;5.360;2023-04-01T01:53:38;10.40;;;3.50;;
70796;SDS011;63842;52.144;5.360;2023-04-01T01:56:06;9.77;;;3.30;;
70796;SDS011;63842;52.144;5.360;2023-04-01T01:58:42;11.25;;;3.83;;
70796;SDS011;63842;52.144;5.360;2023-04-01T02:01:13;9.05;;;2.90;;
70796;SDS011;63842;52.144;5.360;2023-04-01T02:03:43;8.20;;;2.85;;
70796;SDS011;63842;52.144;5.360;2023-04-01T02:06:13;8.43;;;2.80;;
70796;SDS011;63842;52.144;5.360;2023-04-01T02:08:56;9.20;;;2.97;;
70796;SDS011;63842;52.144;5.360;2023-04-01T02:11:30;7.82;;;2.78;;
70796;SDS011;63842;52.144;5.360;2023-04-01T02:14:06;8.35;;;2.65;;
70796;SDS011;63842;52.144;5.360;2023-04-01T02:17:04;7.45;;;2.83;;
70796;SDS011;63842;52.144;5.360;2023-04-01T02:19:39;8.05;;;2.70;;
70796;SDS011;63842;52.144;5.360;2023-04-01T02:22:08;8.85;;;2.75;;
70796;SDS011;63842;52.144;5.360;2023-04-01T02:24:38;7.10;;;2.47;;
70796;SDS011;63842;52.144;5.360;2023-04-01T02:27:06;6.50;;;2.38;;
70796;SDS011;63842;52.144;5.360;2023-04-01T02:29:35;8.18;;;2.60;;
70796;SDS011;63842;52.144;5.360;2023-04-01T02:32:05;7.82;;;2.60;;
70796;SDS011;63842;52.144;5.360;2023-04-01T02:34:33;10.85;;;2.60;;
70796;SDS011;63842;52.144;5.360;2023-04-01T02:37:01;7.10;;;2.65;;
70796;SDS011;63842;52.144;5.360;2023-04-01T02:39:29;8.13;;;2.33;;
70796;SDS011;63842;52.144;5.360;2023-04-01T02:41:56;7.75;;;2.95;;
70796;SDS011;63842;52.144;5.360;2023-04-01T02:44:23;8.52;;;2.58;;
70796;SDS011;63842;52.144;5.360;2023-04-01T02:46:51;9.35;;;2.85;;
70796;SDS011;63842;52.144;5.360;2023-04-01T02:49:19;6.72;;;2.45;;
70796;SDS011;63842;52.144;5.360;2023-04-01T02:51:46;7.30;;;2.42;;
70796;SDS011;63842;52.144;5.360;2023-04-01T02:54:13;7.60;;;2.63;;
70796;SDS011;63842;52.144;5.360;2023-04-01T02:56:41;8.82;;;2.75;;
70796;SDS011;63842;52.144;5.360;2023-04-01T02:59:08;7.90;;;2.55;;
70796;SDS011;63842;52.144;5.360;2023-04-01T03:01:36;6.85;;;2.25;;
70796;SDS011;63842;52.144;5.360;2023-04-01T03:04:03;6.70;;;2.10;;
70796;SDS011;63842;52.144;5.360;2023-04-01T03:06:31;7.40;;;2.55;;
70796;SDS011;63842;52.144;5.360;2023-04-01T03:08:58;7.20;;;2.40;;
70796;SDS011;63842;52.144;5.360;2023-04-01T03:11:26;6.85;;;2.30;;
70796;SDS011;63842;52.144;5.360;2023-04-01T03:13:53;7.45;;;2.00;;
70796;SDS011;63842;52.144;5.360;2023-04-01T03:16:20;6.22;;;2.30;;
70796;SDS011;63842;52.144;5.360;2023-04-01T03:18:49;6.40;;;2.03;;
70796;SDS011;63842;52.144;5.360;2023-04-01T03:21:21;7.55;;;2.38;;
70796;SDS011;63842;52.144;5.360;2023-04-01T03:23:49;7.05;;;2.38;;
70796;SDS011;63842;52.144;5.360;2023-04-01T03:26:16;7.43;;;2.70;;
70796;SDS011;63842;52.144;5.360;2023-04-01T03:28:44;7.00;;;2.50;;
70796;SDS011;63842;52.144;5.360;2023-04-01T03:31:11;8.48;;;2.78;;
70796;SDS011;63842;52.144;5.360;2023-04-01T03:33:46;8.20;;;2.90;;
70796;SDS011;63842;52.144;5.360;2023-04-01T03:36:13;9.48;;;3.75;;
70796;SDS011;63842;52.144;5.360;2023-04-01T03:38:41;8.63;;;3.08;;
70796;SDS011;63842;52.144;5.360;2023-04-01T03:41:11;9.27;;;3.28;;
70796;SDS011;63842;52.144;5.360;2023-04-01T03:43:39;9.65;;;3.30;;
70796;SDS011;63842;52.144;5.360;2023-04-01T03:46:06;11.18;;;3.83;;
70796;SDS011;63842;52.144;5.360;2023-04-01T03:48:33;13.93;;;4.35;;
70796;SDS011;63842;52.144;5.360;2023-04-01T03:51:01;12.80;;;4.10;;
70796;SDS011;63842;52.144;5.360;2023-04-01T03:53:29;14.15;;;4.65;;
70796;SDS011;63842;52.144;5.360;2023-04-01T03:56:02;13.05;;;5.03;;
70796;SDS011;63842;52.144;5.360;2023-04-01T03:58:30;12.80;;;5.00;;
70796;SDS011;63842;52.144;5.360;2023-04-01T04:00:57;13.48;;;5.35;;
70796;SDS011;63842;52.144;5.360;2023-04-01T04:03:25;13.00;;;5.05;;
70796;SDS011;63842;52.144;5.360;2023-04-01T04:05:52;12.15;;;5.15;;
70796;SDS011;63842;52.144;5.360;2023-04-01T04:08:19;14.20;;;5.72;;
70796;SDS011;63842;52.144;5.360;2023-04-01T04:10:54;13.25;;;5.43;;
70796;SDS011;63842;52.144;5.360;2023-04-01T04:13:21;12.80;;;5.15;;
70796;SDS011;63842;52.144;5.360;2023-04-01T04:18:24;12.43;;;5.22;;
70796;SDS011;63842;52.144;5.360;2023-04-01T04:20:52;11.38;;;4.93;;
70796;SDS011;63842;52.144;5.360;2023-04-01T04:23:19;13.20;;;4.97;;
70796;SDS011;63842;52.144;5.360;2023-04-01T04:25:54;12.40;;;4.63;;
70796;SDS011;63842;52.144;5.360;2023-04-01T04:28:21;11.60;;;4.40;;
70796;SDS011;63842;52.144;5.360;2023-04-01T04:30:49;10.90;;;4.50;;
70796;SDS011;63842;52.144;5.360;2023-04-01T04:33:16;10.18;;;3.92;;
70796;SDS011;63842;52.144;5.360;2023-04-01T04:35:43;12.18;;;4.45;;
70796;SDS011;63842;52.144;5.360;2023-04-01T04:38:11;10.73;;;4.22;;
70796;SDS011;63842;52.144;5.360;2023-04-01T04:40:39;11.48;;;4.32;;
70796;SDS011;63842;52.144;5.360;2023-04-01T04:43:09;11.20;;;4.53;;
70796;SDS011;63842;52.144;5.360;2023-04-01T04:45:37;10.57;;;4.05;;
70796;SDS011;63842;52.144;5.360;2023-04-01T04:48:04;11.85;;;3.90;;
70796;SDS011;63842;52.144;5.360;2023-04-01T04:50:32;11.43;;;3.97;;
70796;SDS011;63842;52.144;5.360;2023-04-01T04:52:59;10.30;;;3.60;;
70796;SDS011;63842;52.144;5.360;2023-04-01T04:55:27;12.02;;;4.07;;
70796;SDS011;63842;52.144;5.360;2023-04-01T04:58:14;10.10;;;3.67;;
70796;SDS011;63842;52.144;5.360;2023-04-01T05:00:43;11.07;;;3.60;;
70796;SDS011;63842;52.144;5.360;2023-04-01T05:03:18;10.23;;;3.65;;
70796;SDS011;63842;52.144;5.360;2023-04-01T05:05:52;8.88;;;3.03;;
70796;SDS011;63842;52.144;5.360;2023-04-01T05:08:20;9.98;;;3.15;;
70796;SDS011;63842;52.144;5.360;2023-04-01T05:10:47;9.60;;;3.00;;
70796;SDS011;63842;52.144;5.360;2023-04-01T05:13:14;9.18;;;3.20;;
70796;SDS011;63842;52.144;5.360;2023-04-01T05:15:45;9.57;;;2.90;;
70796;SDS011;63842;52.144;5.360;2023-04-01T05:18:12;8.75;;;3.03;;
70796;SDS011;63842;52.144;5.360;2023-04-01T05:20:45;9.85;;;3.30;;
70796;SDS011;63842;52.144;5.360;2023-04-01T05:23:14;8.40;;;2.97;;
70796;SDS011;63842;52.144;5.360;2023-04-01T05:25:42;8.98;;;2.85;;
70796;SDS011;63842;52.144;5.360;2023-04-01T05:28:11;9.10;;;3.10;;
70796;SDS011;63842;52.144;5.360;2023-04-01T05:30:40;9.43;;;3.40;;
70796;SDS011;63842;52.144;5.360;2023-04-01T05:33:34;9.50;;;3.35;;
70796;SDS011;63842;52.144;5.360;2023-04-01T05:36:07;9.23;;;3.70;;
70796;SDS011;63842;52.144;5.360;2023-04-01T05:38:35;12.00;;;3.90;;
70796;SDS011;63842;52.144;5.360;2023-04-01T05:41:04;10.45;;;3.17;;
70796;SDS011;63842;52.144;5.360;2023-04-01T05:43:36;9.85;;;3.42;;
70796;SDS011;63842;52.144;5.360;2023-04-01T05:46:23;8.90;;;3.13;;
70796;SDS011;63842;52.144;5.360;2023-04-01T05:49:04;7.85;;;2.92;;
70796;SDS011;63842;52.144;5.360;2023-04-01T05:51:32;8.73;;;2.90;;
70796;SDS011;63842;52.144;5.360;2023-04-01T05:53:59;8.35;;;2.92;;
70796;SDS011;63842;52.144;5.360;2023-04-01T05:56:26;8.60;;;2.80;;
70796;SDS011;63842;52.144;5.360;2023-04-01T05:58:54;8.55;;;3.10;;
70796;SDS011;63842;52.144;5.360;2023-04-01T06:01:22;9.18;;;2.80;;
70796;SDS011;63842;52.144;5.360;2023-04-01T06:03:50;8.80;;;3.03;;
70796;SDS011;63842;52.144;5.360;2023-04-01T06:06:25;8.10;;;2.92;;
70796;SDS011;63842;52.144;5.360;2023-04-01T06:08:58;7.80;;;2.60;;
70796;SDS011;63842;52.144;5.360;2023-04-01T06:11:32;7.65;;;2.40;;
70796;SDS011;63842;52.144;5.360;2023-04-01T06:16:49;7.95;;;2.70;;
70796;SDS011;63842;52.144;5.360;2023-04-01T06:38:00;7.95;;;2.60;;
70796;SDS011;63842;52.144;5.360;2023-04-01T06:43:07;7.53;;;2.67;;
70796;SDS011;63842;52.144;5.360;2023-04-01T06:46:06;8.07;;;2.40;;
70796;SDS011;63842;52.144;5.360;2023-04-01T06:49:06;6.93;;;2.30;;
70796;SDS011;63842;52.144;5.360;2023-04-01T06:58:25;6.57;;;2.30;;
70796;SDS011;63842;52.144;5.360;2023-04-01T07:00:57;6.85;;;2.70;;
70796;SDS011;63842;52.144;5.360;2023-04-01T07:05:56;8.07;;;3.13;;
70796;SDS011;63842;52.144;5.360;2023-04-01T07:08:27;6.35;;;2.50;;
70796;SDS011;63842;52.144;5.360;2023-04-01T07:16:20;6.55;;;2.30;;
70796;SDS011;63842;52.144;5.360;2023-04-01T07:18:49;7.13;;;2.08;;
70796;SDS011;63842;52.144;5.360;2023-04-01T07:21:41;7.55;;;2.38;;
70796;SDS011;63842;52.144;5.360;2023-04-01T07:24:22;7.55;;;2.38;;
70796;SDS011;63842;52.144;5.360;2023-04-01T07:27:01;7.85;;;2.60;;
70796;SDS011;63842;52.144;5.360;2023-04-01T07:29:32;7.32;;;2.50;;
70796;SDS011;63842;52.144;5.360;2023-04-01T07:37:12;7.53;;;2.65;;
70796;SDS011;63842;52.144;5.360;2023-04-01T07:48:11;8.00;;;2.75;;
70796;SDS011;63842;52.144;5.360;2023-04-01T07:50:29;8.48;;;2.85;;
70796;SDS011;63842;52.144;5.360;2023-04-01T07:53:11;7.40;;;2.42;;
70796;SDS011;63842;52.144;5.360;2023-04-01T07:55:51;8.25;;;2.60;;
70796;SDS011;63842;52.144;5.360;2023-04-01T08:01:05;8.75;;;2.90;;
70796;SDS011;63842;52.144;5.360;2023-04-01T08:09:06;10.55;;;3.25;;
70796;SDS011;63842;52.144;5.360;2023-04-01T08:12:33;10.50;;;3.35;;
70796;SDS011;63842;52.144;5.360;2023-04-01T08:21:40;10.07;;;3.58;;
70796;SDS011;63842;52.144;5.360;2023-04-01T08:26:49;9.27;;;3.38;;
70796;SDS011;63842;52.144;5.360;2023-04-01T08:32:37;10.18;;;3.67;;
70796;SDS011;63842;52.144;5.360;2023-04-01T08:35:26;10.70;;;3.50;;
70796;SDS011;63842;52.144;5.360;2023-04-01T08:38:05;12.55;;;4.10;;
70796;SDS011;63842;52.144;5.360;2023-04-01T08:40:57;10.93;;;3.92;;
70796;SDS011;63842;52.144;5.360;2023-04-01T08:54:08;14.75;;;6.80;;
70796;SDS011;63842;52.144;5.360;2023-04-01T08:57:04;11.73;;;5.35;;
70796;SDS011;63842;52.144;5.360;2023-04-01T09:00:01;11.57;;;5.00;;
70796;SDS011;63842;52.144;5.360;2023-04-01T09:03:09;11.18;;;3.97;;
70796;SDS011;63842;52.144;5.360;2023-04-01T09:05:47;9.73;;;3.80;;
70796;SDS011;63842;52.144;5.360;2023-04-01T09:14:23;9.27;;;3.15;;
70796;SDS011;63842;52.144;5.360;2023-04-01T09:38:55;6.55;;;2.40;;
70796;SDS011;63842;52.144;5.360;2023-04-01T09:41:31;7.38;;;2.80;;
70796;SDS011;63842;52.144;5.360;2023-04-01T10:01:55;8.70;;;3.25;;
70796;SDS011;63842;52.144;5.360;2023-04-01T10:15:52;11.27;;;4.05;;
70796;SDS011;63842;52.144;5.360;2023-04-01T10:18:16;11.38;;;4.25;;
70796;SDS011;63842;52.144;5.360;2023-04-01T10:20:56;10.95;;;4.45;;
70796;SDS011;63842;52.144;5.360;2023-04-01T10:23:41;10.38;;;3.97;;
70796;SDS011;63842;52.144;5.360;2023-04-01T10:59:34;12.93;;;4.03;;
70796;SDS011;63842;52.144;5.360;2023-04-01T11:17:38;9.20;;;3.22;;
70796;SDS011;63842;52.144;5.360;2023-04-01T11:22:57;9.73;;;2.72;;
70796;SDS011;63842;52.144;5.360;2023-04-01T11:29:09;7.10;;;2.55;;
70796;SDS011;63842;52.144;5.360;2023-04-01T11:31:35;8.32;;;2.60;;
70796;SDS011;63842;52.144;5.360;2023-04-01T11:40:20;6.18;;;2.30;;
70796;SDS011;63842;52.144;5.360;2023-04-01T11:46:33;6.45;;;1.98;;
70796;SDS011;63842;52.144;5.360;2023-04-01T11:57:46;6.40;;;2.20;;
70796;SDS011;63842;52.144;5.360;2023-04-01T12:23:12;16.40;;;3.92;;
70796;SDS011;63842;52.144;5.360;2023-04-01T12:31:29;10.50;;;4.00;;
70796;SDS011;63842;52.144;5.360;2023-04-01T12:36:38;11.93;;;4.15;;
70796;SDS011;63842;52.144;5.360;2023-04-01T12:52:31;17.05;;;5.78;;
70796;SDS011;63842;52.144;5.360;2023-04-01T12:55:16;15.23;;;6.00;;
70796;SDS011;63842;52.144;5.360;2023-04-01T13:08:02;15.75;;;6.20;;
70796;SDS011;63842;52.144;5.360;2023-04-01T13:29:57;12.50;;;4.68;;
70796;SDS011;63842;52.144;5.360;2023-04-01T13:35:20;11.80;;;4.40;;
70796;SDS011;63842;52.144;5.360;2023-04-01T13:38:32;11.25;;;4.32;;
70796;SDS011;63842;52.144;5.360;2023-04-01T13:43:45;11.95;;;5.22;;
70796;SDS011;63842;52.144;5.360;2023-04-01T13:49:07;18.65;;;7.45;;
70796;SDS011;63842;52.144;5.360;2023-04-01T13:51:46;16.17;;;6.97;;
70796;SDS011;63842;52.144;5.360;2023-04-01T14:00:10;9.70;;;3.58;;
70796;SDS011;63842;52.144;5.360;2023-04-01T14:05:44;8.82;;;3.72;;
70796;SDS011;63842;52.144;5.360;2023-04-01T14:08:28;9.82;;;4.30;;
70796;SDS011;63842;52.144;5.360;2023-04-01T14:22:03;9.60;;;3.80;;
70796;SDS011;63842;52.144;5.360;2023-04-01T14:27:25;9.30;;;3.45;;
70796;SDS011;63842;52.144;5.360;2023-04-01T14:29:59;9.73;;;3.50;;
70796;SDS011;63842;52.144;5.360;2023-04-01T14:35:19;9.93;;;3.35;;
70796;SDS011;63842;52.144;5.360;2023-04-01T14:37:58;9.57;;;3.65;;
70796;SDS011;63842;52.144;5.360;2023-04-01T14:40:40;9.35;;;3.63;;
70796;SDS011;63842;52.144;5.360;2023-04-01T14:45:53;8.18;;;3.28;;
70796;SDS011;63842;52.144;5.360;2023-04-01T14:54:00;9.80;;;3.45;;
70796;SDS011;63842;52.144;5.360;2023-04-01T14:56:40;8.68;;;3.10;;
70796;SDS011;63842;52.144;5.360;2023-04-01T14:59:10;7.28;;;2.80;;
70796;SDS011;63842;52.144;5.360;2023-04-01T15:12:26;7.63;;;2.95;;
70796;SDS011;63842;52.144;5.360;2023-04-01T15:20:01;8.50;;;2.85;;
70796;SDS011;63842;52.144;5.360;2023-04-01T15:25:06;7.35;;;2.75;;
70796;SDS011;63842;52.144;5.360;2023-04-01T15:30:28;8.00;;;2.67;;
70796;SDS011;63842;52.144;5.360;2023-04-01T15:37:54;7.80;;;3.03;;
70796;SDS011;63842;52.144;5.360;2023-04-01T15:40:35;8.35;;;3.00;;
70796;SDS011;63842;52.144;5.360;2023-04-01T15:43:11;8.13;;;2.92;;
70796;SDS011;63842;52.144;5.360;2023-04-01T15:48:33;7.68;;;2.90;;
70796;SDS011;63842;52.144;5.360;2023-04-01T16:04:59;7.28;;;2.30;;
70796;SDS011;63842;52.144;5.360;2023-04-01T16:20:22;6.68;;;2.50;;
70796;SDS011;63842;52.144;5.360;2023-04-01T16:25:36;6.30;;;2.22;;
70796;SDS011;63842;52.144;5.360;2023-04-01T16:33:26;5.40;;;2.13;;
70796;SDS011;63842;52.144;5.360;2023-04-01T16:36:05;5.93;;;2.15;;
70796;SDS011;63842;52.144;5.360;2023-04-01T16:38:45;5.47;;;2.00;;
70796;SDS011;63842;52.144;5.360;2023-04-01T16:41:38;6.55;;;2.38;;
70796;SDS011;63842;52.144;5.360;2023-04-01T16:44:10;6.32;;;2.13;;
70796;SDS011;63842;52.144;5.360;2023-04-01T16:46:50;6.47;;;2.65;;
70796;SDS011;63842;52.144;5.360;2023-04-01T16:49:32;6.75;;;2.55;;
70796;SDS011;63842;52.144;5.360;2023-04-01T16:52:04;6.53;;;2.72;;
70796;SDS011;63842;52.144;5.360;2023-04-01T16:57:15;7.07;;;3.20;;
70796;SDS011;63842;52.144;5.360;2023-04-01T16:59:53;7.80;;;3.45;;
70796;SDS011;63842;52.144;5.360;2023-04-01T17:02:31;8.00;;;3.63;;
70796;SDS011;63842;52.144;5.360;2023-04-01T17:05:15;12.82;;;6.13;;
70796;SDS011;63842;52.144;5.360;2023-04-01T17:18:23;10.43;;;5.32;;
70796;SDS011;63842;52.144;5.360;2023-04-01T17:20:58;10.15;;;5.55;;
70796;SDS011;63842;52.144;5.360;2023-04-01T17:23:28;9.35;;;4.57;;
70796;SDS011;63842;52.144;5.360;2023-04-01T17:26:27;8.18;;;4.03;;
70796;SDS011;63842;52.144;5.360;2023-04-01T17:29:22;7.70;;;3.42;;
70796;SDS011;63842;52.144;5.360;2023-04-01T17:32:03;6.47;;;2.63;;
70796;SDS011;63842;52.144;5.360;2023-04-01T17:34:58;7.68;;;3.00;;
70796;SDS011;63842;52.144;5.360;2023-04-01T17:37:43;7.00;;;2.90;;
70796;SDS011;63842;52.144;5.360;2023-04-01T17:42:50;7.45;;;3.00;;
70796;SDS011;63842;52.144;5.360;2023-04-01T17:48:17;7.50;;;2.97;;
70796;SDS011;63842;52.144;5.360;2023-04-01T17:50:49;7.45;;;3.30;;
70796;SDS011;63842;52.144;5.360;2023-04-01T17:56:14;7.90;;;3.42;;
70796;SDS011;63842;52.144;5.360;2023-04-01T18:04:30;8.23;;;3.30;;
70796;SDS011;63842;52.144;5.360;2023-04-01T18:15:05;8.27;;;3.28;;
70796;SDS011;63842;52.144;5.360;2023-04-01T18:17:51;7.32;;;2.95;;
70796;SDS011;63842;52.144;5.360;2023-04-01T18:22:57;8.07;;;3.50;;
70796;SDS011;63842;52.144;5.360;2023-04-01T18:30:32;23.02;;;10.05;;
70796;SDS011;63842;52.144;5.360;2023-04-01T18:33:07;19.95;;;10.27;;
70796;SDS011;63842;52.144;5.360;2023-04-01T18:38:29;15.25;;;7.10;;
70796;SDS011;63842;52.144;5.360;2023-04-01T18:46:19;11.00;;;4.60;;
70796;SDS011;63842;52.144;5.360;2023-04-01T18:48:52;8.07;;;3.63;;
70796;SDS011;63842;52.144;5.360;2023-04-01T18:53:59;8.10;;;3.83;;
70796;SDS011;63842;52.144;5.360;2023-04-01T18:56:29;7.45;;;3.35;;
70796;SDS011;63842;52.144;5.360;2023-04-01T19:06:51;9.38;;;3.88;;
70796;SDS011;63842;52.144;5.360;2023-04-01T19:09:22;8.25;;;4.00;;
70796;SDS011;63842;52.144;5.360;2023-04-01T19:12:02;8.52;;;4.05;;
70796;SDS011;63842;52.144;5.360;2023-04-01T19:17:26;9.18;;;3.97;;
70796;SDS011;63842;52.144;5.360;2023-04-01T19:20:00;8.48;;;3.90;;
70796;SDS011;63842;52.144;5.360;2023-04-01T19:25:07;8.07;;;3.83;;
70796;SDS011;63842;52.144;5.360;2023-04-01T19:27:41;9.65;;;4.30;;
70796;SDS011;63842;52.144;5.360;2023-04-01T19:30:13;8.85;;;4.07;;
70796;SDS011;63842;52.144;5.360;2023-04-01T19:35:38;27.30;;;12.05;;
70796;SDS011;63842;52.144;5.360;2023-04-01T19:38:12;22.35;;;10.15;;
70796;SDS011;63842;52.144;5.360;2023-04-01T19:41:12;14.65;;;6.97;;
70796;SDS011;63842;52.144;5.360;2023-04-01T19:43:48;13.43;;;6.47;;
70796;SDS011;63842;52.144;5.360;2023-04-01T19:46:26;12.68;;;6.22;;
70796;SDS011;63842;52.144;5.360;2023-04-01T19:56:21;10.85;;;5.10;;
70796;SDS011;63842;52.144;5.360;2023-04-01T20:01:20;9.95;;;5.05;;
70796;SDS011;63842;52.144;5.360;2023-04-01T20:04:04;10.10;;;4.63;;
70796;SDS011;63842;52.144;5.360;2023-04-01T20:17:07;11.68;;;5.28;;
70796;SDS011;63842;52.144;5.360;2023-04-01T20:19:40;11.27;;;5.13;;
70796;SDS011;63842;52.144;5.360;2023-04-01T20:22:16;10.25;;;5.45;;
70796;SDS011;63842;52.144;5.360;2023-04-01T20:24:48;12.18;;;5.55;;
70796;SDS011;63842;52.144;5.360;2023-04-01T20:37:48;10.18;;;5.00;;
70796;SDS011;63842;52.144;5.360;2023-04-01T20:53:43;11.45;;;5.20;;
70796;SDS011;63842;52.144;5.360;2023-04-01T20:56:22;11.27;;;4.93;;
70796;SDS011;63842;52.144;5.360;2023-04-01T21:12:26;10.77;;;4.28;;
70796;SDS011;63842;52.144;5.360;2023-04-01T21:31:02;9.52;;;4.60;;
70796;SDS011;63842;52.144;5.360;2023-04-01T21:46:53;9.60;;;4.68;;
70796;SDS011;63842;52.144;5.360;2023-04-01T22:05:17;9.63;;;4.45;;
70796;SDS011;63842;52.144;5.360;2023-04-01T22:10:45;12.30;;;4.90;;
70796;SDS011;63842;52.144;5.360;2023-04-01T22:13:24;10.32;;;5.03;;
70796;SDS011;63842;52.144;5.360;2023-04-01T22:18:54;10.13;;;4.50;;
70796;SDS011;63842;52.144;5.360;2023-04-01T22:21:44;10.93;;;4.88;;
70796;SDS011;63842;52.144;5.360;2023-04-01T22:24:26;11.52;;;4.85;;
70796;SDS011;63842;52.144;5.360;2023-04-01T22:27:06;10.15;;;4.72;;
70796;SDS011;63842;52.144;5.360;2023-04-01T22:29:35;9.95;;;4.93;;
70796;SDS011;63842;52.144;5.360;2023-04-01T22:32:14;10.80;;;4.97;;
70796;SDS011;63842;52.144;5.360;2023-04-01T22:34:54;10.35;;;4.95;;
70796;SDS011;63842;52.144;5.360;2023-04-01T22:37:24;10.73;;;5.03;;
70796;SDS011;63842;52.144;5.360;2023-04-01T22:42:35;11.32;;;5.07;;
70796;SDS011;63842;52.144;5.360;2023-04-01T22:47:40;13.32;;;5.45;;
70796;SDS011;63842;52.144;5.360;2023-04-01T22:52:40;11.68;;;5.90;;
70796;SDS011;63842;52.144;5.360;2023-04-01T22:55:30;10.55;;;4.75;;
70796;SDS011;63842;52.144;5.360;2023-04-01T23:00:25;13.68;;;5.88;;
70796;SDS011;63842;52.144;5.360;2023-04-01T23:05:28;15.02;;;5.43;;
70796;SDS011;63842;52.144;5.360;2023-04-01T23:10:58;12.65;;;6.25;;
70796;SDS011;63842;52.144;5.360;2023-04-01T23:13:29;12.05;;;5.80;;
70796;SDS011;63842;52.144;5.360;2023-04-01T23:15:57;13.63;;;6.45;;
70796;SDS011;63842;52.144;5.360;2023-04-01T23:18:30;16.45;;;6.57;;
70796;SDS011;63842;52.144;5.360;2023-04-01T23:21:26;13.85;;;6.13;;
70796;SDS011;63842;52.144;5.360;2023-04-01T23:26:43;15.68;;;5.95;;
70796;SDS011;63842;52.144;5.360;2023-04-01T23:29:14;14.68;;;6.47;;
70796;SDS011;63842;52.144;5.360;2023-04-01T23:31:45;13.55;;;5.80;;
70796;SDS011;63842;52.144;5.360;2023-04-01T23:36:41;14.52;;;6.78;;
70796;SDS011;63842;52.144;5.360;2023-04-01T23:39:17;14.05;;;7.20;;
70796;SDS011;63842;52.144;5.360;2023-04-01T23:41:47;14.68;;;6.53;;
70796;SDS011;63842;52.144;5.360;2023-04-01T23:44:15;13.40;;;6.25;;
70796;SDS011;63842;52.144;5.360;2023-04-01T23:46:42;14.63;;;6.43;;
70796;SDS011;63842;52.144;5.360;2023-04-01T23:49:13;13.55;;;6.63;;
70796;SDS011;63842;52.144;5.360;2023-04-01T23:51:59;14.63;;;6.45;;
70796;SDS011;63842;52.144;5.360;2023-04-01T23:54:29;15.07;;;6.45;;
